Todos
Gamurruguyurru Airport YGMG Condiciones meteorológicas
There is no TAF data available at YGMG or any nearby airports.
There is no METAR data available at YGMG. Showing METAR data for YMGB (9 mi E).
Historial METAR MGT reciente (no hay datos para YGMG)
| Date | Time (ACST) | Flight Rules | Wind Dir. | Speed | Type | Height AGL (ft) | Visibility | Temp (°C) | Temp (°F) | Dew Point (°C) | Dew Point (°F) | Rel. Humid. | Pressure | Density Altitude | Remarks |
|---|---|---|---|---|---|---|---|---|---|---|---|---|---|---|---|
| 05-may | 07:30AM | n/a | 150° | 6 kt | Missing | 25° | 77° | 24° | 75° | 94% | 1012 mb | 1.289 ft | |||
| 05-may | 06:30AM | n/a | 140° | 4 kt | Missing | 24° | 75° | 23° | 73° | 94% | 1011 mb | 1.198 ft | |||
| 05-may | 05:30AM | n/a | 150° | 5 kt | Missing | 24° | 75° | 24° | 75° | 100% | 1010 mb | 1.228 ft | |||
| 05-may | 04:30AM | n/a | 130° | 3 kt | Missing | 24° | 75° | 23° | 73° | 94% | 1010 mb | 1.228 ft | |||
| 05-may | 03:30AM | n/a | 140° | 5 kt | Missing | 25° | 77° | 24° | 75° | 94% | 1011 mb | 1.318 ft | |||
| 05-may | 02:30AM | n/a | 140° | 5 kt | Missing | 25° | 77° | 24° | 75° | 94% | 1011 mb | 1.318 ft | |||
| 05-may | 01:30AM | n/a | 150° | 6 kt | Missing | 25° | 77° | 24° | 75° | 94% | 1011 mb | 1.318 ft | |||
| 05-may | 12:30AM | n/a | 140° | 3 kt | Missing | 24° | 75° | 24° | 75° | 100% | 1011 mb | 1.198 ft | |||
| 04-may | 11:30PM | n/a | 150° | 1 kt | Missing | 24° | 75° | 23° | 73° | 94% | 1012 mb | 1.169 ft | |||
| 04-may | 10:30PM | n/a | 170° | 1 kt | Missing | 25° | 77° | 24° | 75° | 94% | 1012 mb | 1.289 ft | |||
| 04-may | 09:30PM | n/a | Calm | Missing | 25° | 77° | 24° | 75° | 94% | 1012 mb | 1.289 ft | ||||
| 04-may | 08:30PM | n/a | Calm | Missing | 25° | 77° | 24° | 75° | 94% | 1012 mb | 1.289 ft | ||||
| 04-may | 07:30PM | n/a | 100° | 5 kt | Missing | 25° | 77° | 23° | 73° | 89% | 1012 mb | 1.289 ft | |||
| 04-may | 06:30PM | n/a | 170° | 12 kt | Missing | 26° | 78° | 23° | 73° | 84% | 1011 mb | 1.438 ft | |||
| 04-may | 05:30PM | n/a | 20° | 5 kt | Missing | 30° | 86° | 24° | 75° | 70% | 1010 mb | 1.948 ft | |||
| 04-may | 04:30PM | n/a | 360° | 6 kt | Missing | 31° | 87° | 24° | 75° | 66% | 1009 mb | 2.097 ft | |||
| 04-may | 03:30PM | n/a | 70° | 7 kt | Missing | 32° | 89° | 23° | 73° | 59% | 1009 mb | 2.217 ft | |||
| 04-may | 02:30PM | n/a | 70° | 7 kt | Missing | 32° | 89° | 24° | 75° | 63% | 1010 mb | 2.188 ft | |||
| 04-may | 01:30PM | n/a | 50° | 7 kt | Missing | 32° | 89° | 24° | 75° | 63% | 1010 mb | 2.188 ft | |||
| 04-may | 12:30PM | n/a | 100° | 7 kt | Missing | 32° | 89° | 23° | 73° | 59% | 1011 mb | 2.158 ft | |||
| 04-may | 11:30AM | n/a | 110° | 8 kt | Missing | 30° | 86° | 24° | 75° | 70% | 1012 mb | 1.889 ft | |||
| 04-may | 10:30AM | n/a | 120° | 8 kt | Missing | 31° | 87° | 24° | 75° | 66% | 1012 mb | 2.009 ft | |||
| 04-may | 09:30AM | n/a | 120° | 7 kt | Missing | 30° | 86° | 24° | 75° | 70% | 1012 mb | 1.889 ft | |||
| 04-may | 08:30AM | n/a | 130° | 7 kt | Missing | 28° | 82° | 24° | 75° | 79% | 1012 mb | 1.649 ft |
Entrar
| Tu navegador no está contemplado. eleva la categoría de tu navegador |
